メインページ
METAR-TAF:

METAR-TAF

空港 :

クマック, ニューカレドニア

緯度: 20-34S, 経度: 164-17E, 海抜: 23m

METAR: 見つかりません

時間: 07:57 (20:57 UTC)

予報

当レポートは3時間57分前の17:00(UTC)に作成
予報は11日の 18時(UTC)から 12日の 18時(UTC)まで有効
北東の風 5kt
視程10km以上
高度5000ftの雲は散在している
高度6000ftの千切れ雲あり
11日の 23時(UTC)から 12日の 01時(UTC)まで徐々に
南/南東の風 10kt
12日の 07時(UTC)から 12日の 09時(UTC)まで徐々に
変向風 2kt

TAF: NWWK 111700Z 1118/1218 04005KT 9999 SCT050 BKN060 BECMG 1123/1201 16010KT BECMG 1207/1209 VRB02KT

4,000以上の空港の気象観測と天気予報(METAR報とTAF報)

利用可能な観測所は地図上に黄色い丸と赤い丸で示す。

丸の上にカーソルを重ねると観測所名を参照できる。

次にクリックすると気象観測と天気予報を参照できる。

マップの切り替え:黒色「×」印の緑ボタンをクリックして拡大、「-」印の緑ボタンをクリックして縮小、緑色の三角印をクリックして隣りの地図に切り替え


METAR-TAF: